Terminal Aerodrome Forecast
Issued by NWS Newport/Morehead City, NC

Home | Current Version | Previous Version | Graphics & Text | Print | Product List | Glossary Off
Versions: 1 2 3 4 5 6 7 8 9 10 11 12 13 14

000
FTUS42 KMHX 011700
TAFEWN
TAF
KEWN 011730Z 0118/0218 22010KT P6SM BKN100
     FM020100 18010KT P6SM OVC040
     FM020600 20010G15KT 5SM -RA OVC020
     FM021200 22018G25KT 5SM -RA SCT007 OVC015=

USA.gov is the U.S. government's official web portal to all federal, state and local government web resources and services.